Airfield :
LOGIN :

Register | Disclaimer

   EN    FR    IT 

 










Legend :    VFR   Marginal VFR   IFR   Intensive IFR   Very Intensive IFR
Visi :
Ceiling :
>= 8 km
>= 3000ft
5 to 8 km
1000 to 3000 ft
1500m to 5 km
500 to 1000 ft
800 to 1500m
200 to 500 ft
< 800m
< 200 ft
Symbols :   Thunderstorms  Fog  Heavy snow  Heavy precipitations  Wind > 20 kt
SIGMETs :     Misc.  Thunderstorms  Icing  Turbulence  Mountain Waves  Volcanic Ashes







- Airport Elevation : 622 ft
- IATA code : BRS
- Download approach charts


EGGD - Bristol Int.

CURRENT METAR :
  • 190450Z AUTO 06015KT 9999 BKN009 OVC013 05/04 Q1022

EXPIRED METARs :
  • 190420Z AUTO 06013KT 9999 OVC012 05/03 Q1022
  • 190350Z AUTO 05013KT 9999 BKN021 04/03 Q1022
  • 190320Z AUTO 05014KT 9999 FEW022 04/02 Q1023
  • 190250Z AUTO 06018KT 9999 NCD 04/01 Q1023
  • 190220Z AUTO 06014KT 9999 NCD 04/01 Q1023
  • 190150Z AUTO 06015KT 9999 NCD 04/01 Q1023

TAF AMD TAF EGGD
Valid from the 19 at 04:00 until the 20 at 00:00 UTC


190438Z 1904/1924 06014KT 9999 OVC012
TEMPO 1904/1907 7000 -DZ OVC009
BECMG 1907/1910 FEW015 BKN025
PROB30
TEMPO 1911/1924 07017G27KT 8000 -SHRA
ATIS : +44 1275 473 666
No reported NOTAMs for that airfield.



MET'MAP, your aeronautical weather chart ! - Copyright ORBIFLY December 2007 - Disclaimer

ORBIFLY MET'MAP TEAM :

Programming & Development : Alexandra Zaïnal
Concept & Development : Baudouin d'Aumeries
Co-Development & Prog : Marc-Olivier Méhu
Technical & hardware support : Manuel Goepfert

Contact : metmap@orbifly.com




SOURCES & CREDITS :

   NOAA